Flugplatz - Wetter - Augsburg

[Quelle: ADDS]
METAR
EDMA 232220Z AUTO 25008KT 9999 // SCT050/// OVC066/// 08/05 Q1025 =
TAF
EDMA 231700Z 2318/2403 25007KT 9999 SCT015 BKN035 TEMPO 2322/2403 BKN012 =
SR / SS: 05:52 / 16:15 UTC (Günzburg 2017-10-23)

Flugplatz - Wetter - Laupheim

[Quelle: ADDS]
METAR
ETHL 232120Z 23005KT 9999 FEW010 BKN050 07/05 Q1025 BLU =
TAF
AMD ETHL 231948Z 2320/2405 25010KT 9999 NSW SCT020 BKN040 TEMPO 2402/2405 23007KT 6000 -RADZ SCT012 BKN020 CANCEL 2045 =

Notice: Undefined index: sun in /homepages/1/d158740339/htdocs/joomla/modules/mod_wx/tmpl/default.php on line 13

Flugplatz - Wetter - Memmingen

[Quelle: ADDS]
METAR
EDJA 232020Z 23010KT 9000 -RA FEW016 BKN024 07/06 Q1025 =
TAF
EDJA 231700Z 2318/2403 24009KT 9999 SCT012 BKN030 TEMPO 2320/2403 BKN012 =

Notice: Undefined index: sun in /homepages/1/d158740339/htdocs/joomla/modules/mod_wx/tmpl/default.php on line 13

Flugplatz - Wetter - Neuburg/Donau

[Quelle: ADDS]
METAR
ETSN 232120Z 26010KT 9999 -DZ FEW020 BKN065 08/06 Q1024 BLU =
TAF
ETSN 231935Z 2320/2405 27008KT 9999 NSW SCT020 BKN040 BECMG 2401/2403 25007KT 5000 -RA BKN015 BKN040 BY ETGL =

Notice: Undefined index: sun in /homepages/1/d158740339/htdocs/joomla/modules/mod_wx/tmpl/default.php on line 13

Flugplatz - Wetter - Stuttgart

[Quelle: ADDS]
METAR
EDDS 232220Z 24003KT 170V300 9999 FEW018 BKN055 09/07 Q1025 =
TAF
EDDS 231700Z 2318/2418 23005KT 9999 SCT020 BKN040 PROB30 TEMPO 2402/2408 4000 -DZ BR BKN013 =

Notice: Undefined index: sun in /homepages/1/d158740339/htdocs/joomla/modules/mod_wx/tmpl/default.php on line 13

Flugplatz - Wetter - Niederstetten

[Quelle: ADDS]
METAR
ETHN 232120Z 25008KT 9999 BKN007 OVC045 08/07 Q1023 GRN =
TAF
AMD ETHN 231504Z 2314/2323 27015KT 9999 NSW SCT015 BKN040 TEMPO 2314/2319 27010G20KT 5000 SHRA BKN007TCU BKN040 CANCEL 1520 =

Notice: Undefined index: sun in /homepages/1/d158740339/htdocs/joomla/modules/mod_wx/tmpl/default.php on line 13